sensor_id;sensor_type;location;lat;lon;timestamp;temperature;humidity
80234;DHT22;69712;42.142;24.766;2024-03-23T00:53:45;8.80;53.00
80234;DHT22;69712;42.142;24.766;2024-03-23T00:56:10;8.80;51.70
80234;DHT22;69712;42.142;24.766;2024-03-23T00:58:36;8.70;52.40
80234;DHT22;69712;42.142;24.766;2024-03-23T01:01:02;8.60;52.70
80234;DHT22;69712;42.142;24.766;2024-03-23T01:03:29;8.60;51.90
80234;DHT22;69712;42.142;24.766;2024-03-23T01:06:02;8.40;53.00
80234;DHT22;69712;42.142;24.766;2024-03-23T01:08:28;8.30;53.00
80234;DHT22;69712;42.142;24.766;2024-03-23T01:10:58;8.40;53.00
80234;DHT22;69712;42.142;24.766;2024-03-23T01:13:25;8.40;52.80
80234;DHT22;69712;42.142;24.766;2024-03-23T01:15:52;8.20;53.20
80234;DHT22;69712;42.142;24.766;2024-03-23T01:18:19;8.00;54.60
80234;DHT22;69712;42.142;24.766;2024-03-23T01:20:45;7.70;56.30
80234;DHT22;69712;42.142;24.766;2024-03-23T01:23:11;7.50;56.20
80234;DHT22;69712;42.142;24.766;2024-03-23T01:25:37;7.50;56.20
80234;DHT22;69712;42.142;24.766;2024-03-23T01:28:03;7.60;56.00
80234;DHT22;69712;42.142;24.766;2024-03-23T01:30:29;7.70;56.00
80234;DHT22;69712;42.142;24.766;2024-03-23T01:32:56;7.70;56.50
80234;DHT22;69712;42.142;24.766;2024-03-23T01:35:22;7.60;57.50
80234;DHT22;69712;42.142;24.766;2024-03-23T01:37:47;7.70;55.80
80234;DHT22;69712;42.142;24.766;2024-03-23T01:40:13;7.70;55.70
80234;DHT22;69712;42.142;24.766;2024-03-23T01:42:39;7.80;56.20
80234;DHT22;69712;42.142;24.766;2024-03-23T01:45:09;7.70;55.50
80234;DHT22;69712;42.142;24.766;2024-03-23T01:47:37;7.70;55.60
80234;DHT22;69712;42.142;24.766;2024-03-23T01:50:04;7.70;55.70
80234;DHT22;69712;42.142;24.766;2024-03-23T01:52:30;7.70;57.00
80234;DHT22;69712;42.142;24.766;2024-03-23T01:54:56;7.60;55.90
80234;DHT22;69712;42.142;24.766;2024-03-23T01:57:22;7.60;56.30
80234;DHT22;69712;42.142;24.766;2024-03-23T01:59:48;7.60;56.20
80234;DHT22;69712;42.142;24.766;2024-03-23T02:02:14;7.50;57.40
80234;DHT22;69712;42.142;24.766;2024-03-23T02:04:39;7.30;58.10
80234;DHT22;69712;42.142;24.766;2024-03-23T02:09:52;7.40;57.60
80234;DHT22;69712;42.142;24.766;2024-03-23T02:12:18;7.40;57.80
80234;DHT22;69712;42.142;24.766;2024-03-23T02:14:44;7.50;57.20
80234;DHT22;69712;42.142;24.766;2024-03-23T02:17:10;7.70;56.80
80234;DHT22;69712;42.142;24.766;2024-03-23T02:19:36;7.80;57.60
80234;DHT22;69712;42.142;24.766;2024-03-23T02:22:02;7.80;56.90
80234;DHT22;69712;42.142;24.766;2024-03-23T02:24:29;7.60;57.10
80234;DHT22;69712;42.142;24.766;2024-03-23T02:26:55;7.70;56.90
80234;DHT22;69712;42.142;24.766;2024-03-23T02:29:20;7.70;57.00
80234;DHT22;69712;42.142;24.766;2024-03-23T02:31:46;7.80;56.90
80234;DHT22;69712;42.142;24.766;2024-03-23T02:34:12;7.80;56.50
80234;DHT22;69712;42.142;24.766;2024-03-23T02:36:38;7.80;56.90
80234;DHT22;69712;42.142;24.766;2024-03-23T02:39:03;7.70;56.90
80234;DHT22;69712;42.142;24.766;2024-03-23T02:41:29;7.70;56.80
80234;DHT22;69712;42.142;24.766;2024-03-23T02:43:55;7.60;58.20
80234;DHT22;69712;42.142;24.766;2024-03-23T02:46:21;7.60;57.30
80234;DHT22;69712;42.142;24.766;2024-03-23T02:48:48;7.70;57.40
80234;DHT22;69712;42.142;24.766;2024-03-23T02:51:14;7.80;57.20
80234;DHT22;69712;42.142;24.766;2024-03-23T02:53:41;7.70;57.80
80234;DHT22;69712;42.142;24.766;2024-03-23T02:56:06;7.60;58.00
80234;DHT22;69712;42.142;24.766;2024-03-23T02:58:32;7.50;58.10
80234;DHT22;69712;42.142;24.766;2024-03-23T03:00:58;7.70;58.00
80234;DHT22;69712;42.142;24.766;2024-03-23T03:03:24;7.70;58.20
80234;DHT22;69712;42.142;24.766;2024-03-23T03:05:56;7.70;58.50
80234;DHT22;69712;42.142;24.766;2024-03-23T03:08:22;7.70;58.30
80234;DHT22;69712;42.142;24.766;2024-03-23T03:10:48;7.80;57.70
80234;DHT22;69712;42.142;24.766;2024-03-23T03:13:15;7.90;57.30
80234;DHT22;69712;42.142;24.766;2024-03-23T03:15:43;7.90;57.40
80234;DHT22;69712;42.142;24.766;2024-03-23T03:18:09;7.90;57.30
80234;DHT22;69712;42.142;24.766;2024-03-23T03:20:40;8.00;57.30
80234;DHT22;69712;42.142;24.766;2024-03-23T03:23:06;8.00;57.20
80234;DHT22;69712;42.142;24.766;2024-03-23T03:25:32;7.90;57.10
80234;DHT22;69712;42.142;24.766;2024-03-23T03:27:58;7.90;57.20
80234;DHT22;69712;42.142;24.766;2024-03-23T03:30:24;7.90;57.20
80234;DHT22;69712;42.142;24.766;2024-03-23T03:32:52;7.90;57.10
80234;DHT22;69712;42.142;24.766;2024-03-23T03:35:18;7.90;57.60
80234;DHT22;69712;42.142;24.766;2024-03-23T03:37:44;7.80;57.60
80234;DHT22;69712;42.142;24.766;2024-03-23T03:40:11;7.60;58.40
80234;DHT22;69712;42.142;24.766;2024-03-23T03:42:37;7.60;58.60
80234;DHT22;69712;42.142;24.766;2024-03-23T03:45:03;7.60;58.20
80234;DHT22;69712;42.142;24.766;2024-03-23T03:47:30;7.50;58.50
80234;DHT22;69712;42.142;24.766;2024-03-23T03:49:56;7.60;58.40
80234;DHT22;69712;42.142;24.766;2024-03-23T03:52:22;7.60;58.20
80234;DHT22;69712;42.142;24.766;2024-03-23T03:54:47;7.50;59.60
80234;DHT22;69712;42.142;24.766;2024-03-23T03:57:13;7.30;60.00
80234;DHT22;69712;42.142;24.766;2024-03-23T03:59:39;7.20;60.10
80234;DHT22;69712;42.142;24.766;2024-03-23T04:02:05;7.30;60.00
80234;DHT22;69712;42.142;24.766;2024-03-23T04:04:30;7.40;59.30
80234;DHT22;69712;42.142;24.766;2024-03-23T04:07:00;7.50;59.50
80234;DHT22;69712;42.142;24.766;2024-03-23T04:09:26;7.60;59.20
80234;DHT22;69712;42.142;24.766;2024-03-23T04:11:52;7.50;58.10
80234;DHT22;69712;42.142;24.766;2024-03-23T04:14:18;7.50;58.50
80234;DHT22;69712;42.142;24.766;2024-03-23T04:16:43;7.20;60.00
80234;DHT22;69712;42.142;24.766;2024-03-23T04:19:09;7.20;60.00
80234;DHT22;69712;42.142;24.766;2024-03-23T04:21:37;7.20;59.70
80234;DHT22;69712;42.142;24.766;2024-03-23T04:24:03;7.30;59.70
80234;DHT22;69712;42.142;24.766;2024-03-23T04:26:29;7.20;57.70
80234;DHT22;69712;42.142;24.766;2024-03-23T04:28:55;7.30;57.10
80234;DHT22;69712;42.142;24.766;2024-03-23T04:31:20;7.30;57.40
80234;DHT22;69712;42.142;24.766;2024-03-23T04:33:50;7.30;57.00
80234;DHT22;69712;42.142;24.766;2024-03-23T04:36:16;7.30;56.70
80234;DHT22;69712;42.142;24.766;2024-03-23T04:38:42;7.20;56.60
80234;DHT22;69712;42.142;24.766;2024-03-23T04:41:07;7.20;57.10
80234;DHT22;69712;42.142;24.766;2024-03-23T04:43:33;7.10;58.70
80234;DHT22;69712;42.142;24.766;2024-03-23T04:45:59;7.00;57.70
80234;DHT22;69712;42.142;24.766;2024-03-23T04:48:25;7.10;57.50
80234;DHT22;69712;42.142;24.766;2024-03-23T04:50:55;7.10;57.00
80234;DHT22;69712;42.142;24.766;2024-03-23T04:53:23;7.00;57.80
80234;DHT22;69712;42.142;24.766;2024-03-23T04:55:56;7.00;58.10
80234;DHT22;69712;42.142;24.766;2024-03-23T04:58:25;7.10;57.40
80234;DHT22;69712;42.142;24.766;2024-03-23T05:00:57;7.10;58.30
80234;DHT22;69712;42.142;24.766;2024-03-23T05:03:23;7.00;57.90
80234;DHT22;69712;42.142;24.766;2024-03-23T05:05:49;7.10;57.90
80234;DHT22;69712;42.142;24.766;2024-03-23T05:08:16;7.20;57.20
80234;DHT22;69712;42.142;24.766;2024-03-23T05:10:42;7.30;56.40
80234;DHT22;69712;42.142;24.766;2024-03-23T05:13:09;7.50;55.90
80234;DHT22;69712;42.142;24.766;2024-03-23T05:15:34;7.50;55.60
80234;DHT22;69712;42.142;24.766;2024-03-23T05:18:01;7.30;56.10
80234;DHT22;69712;42.142;24.766;2024-03-23T05:20:26;7.40;57.00
80234;DHT22;69712;42.142;24.766;2024-03-23T05:22:52;7.50;55.80
80234;DHT22;69712;42.142;24.766;2024-03-23T05:25:18;7.60;55.70
80234;DHT22;69712;42.142;24.766;2024-03-23T05:27:44;7.50;55.90
80234;DHT22;69712;42.142;24.766;2024-03-23T05:30:10;7.90;54.30
80234;DHT22;69712;42.142;24.766;2024-03-23T05:32:36;8.50;52.70
80234;DHT22;69712;42.142;24.766;2024-03-23T05:35:04;8.40;52.30
80234;DHT22;69712;42.142;24.766;2024-03-23T05:37:30;8.70;51.50
80234;DHT22;69712;42.142;24.766;2024-03-23T05:39:59;9.00;50.60
80234;DHT22;69712;42.142;24.766;2024-03-23T05:42:25;9.10;49.90
80234;DHT22;69712;42.142;24.766;2024-03-23T05:44:51;9.40;49.20
80234;DHT22;69712;42.142;24.766;2024-03-23T05:47:17;9.20;48.70
80234;DHT22;69712;42.142;24.766;2024-03-23T05:49:43;9.20;49.90
80234;DHT22;69712;42.142;24.766;2024-03-23T05:52:11;9.10;50.60
80234;DHT22;69712;42.142;24.766;2024-03-23T05:54:37;9.20;49.40
80234;DHT22;69712;42.142;24.766;2024-03-23T05:57:03;9.40;50.00
80234;DHT22;69712;42.142;24.766;2024-03-23T05:59:29;9.40;49.60
80234;DHT22;69712;42.142;24.766;2024-03-23T06:01:55;9.90;48.70
80234;DHT22;69712;42.142;24.766;2024-03-23T06:04:21;10.70;46.10
80234;DHT22;69712;42.142;24.766;2024-03-23T06:06:48;11.10;43.80
80234;DHT22;69712;42.142;24.766;2024-03-23T06:09:14;10.80;44.50
80234;DHT22;69712;42.142;24.766;2024-03-23T06:11:39;10.30;45.50
80234;DHT22;69712;42.142;24.766;2024-03-23T06:14:05;10.80;45.30
80234;DHT22;69712;42.142;24.766;2024-03-23T06:16:31;10.60;45.40
80234;DHT22;69712;42.142;24.766;2024-03-23T06:18:57;11.10;44.40
80234;DHT22;69712;42.142;24.766;2024-03-23T06:21:24;11.70;42.80
80234;DHT22;69712;42.142;24.766;2024-03-23T06:23:53;13.00;40.50
80234;DHT22;69712;42.142;24.766;2024-03-23T06:26:19;14.30;38.20
80234;DHT22;69712;42.142;24.766;2024-03-23T06:28:49;15.70;35.40
80234;DHT22;69712;42.142;24.766;2024-03-23T06:31:14;16.10;33.60
80234;DHT22;69712;42.142;24.766;2024-03-23T06:33:40;16.40;32.70
80234;DHT22;69712;42.142;24.766;2024-03-23T06:36:10;17.00;31.70
80234;DHT22;69712;42.142;24.766;2024-03-23T06:38:37;16.50;32.70
80234;DHT22;69712;42.142;24.766;2024-03-23T06:41:04;17.30;30.90
80234;DHT22;69712;42.142;24.766;2024-03-23T06:43:30;17.50;31.40
80234;DHT22;69712;42.142;24.766;2024-03-23T06:45:56;18.00;30.50
80234;DHT22;69712;42.142;24.766;2024-03-23T06:48:22;17.70;30.40
80234;DHT22;69712;42.142;24.766;2024-03-23T06:54:24;16.80;30.80
80234;DHT22;69712;42.142;24.766;2024-03-23T06:57:01;16.90;31.50
80234;DHT22;69712;42.142;24.766;2024-03-23T06:59:38;17.20;31.50
80234;DHT22;69712;42.142;24.766;2024-03-23T07:02:05;17.60;30.50
80234;DHT22;69712;42.142;24.766;2024-03-23T07:04:34;18.70;28.70
80234;DHT22;69712;42.142;24.766;2024-03-23T07:07:00;19.30;27.30
80234;DHT22;69712;42.142;24.766;2024-03-23T07:09:28;19.90;26.80
80234;DHT22;69712;42.142;24.766;2024-03-23T07:11:57;20.20;26.80
80234;DHT22;69712;42.142;24.766;2024-03-23T07:14:23;21.60;26.20
80234;DHT22;69712;42.142;24.766;2024-03-23T07:16:50;21.90;25.40
80234;DHT22;69712;42.142;24.766;2024-03-23T07:19:16;22.60;24.60
80234;DHT22;69712;42.142;24.766;2024-03-23T07:21:45;22.30;24.70
80234;DHT22;69712;42.142;24.766;2024-03-23T07:24:12;23.40;23.80
80234;DHT22;69712;42.142;24.766;2024-03-23T07:26:38;24.20;23.10
80234;DHT22;69712;42.142;24.766;2024-03-23T07:29:05;24.60;22.30
80234;DHT22;69712;42.142;24.766;2024-03-23T07:31:30;23.40;23.90
80234;DHT22;69712;42.142;24.766;2024-03-23T07:33:56;23.40;23.20
80234;DHT22;69712;42.142;24.766;2024-03-23T07:36:22;23.60;22.20
80234;DHT22;69712;42.142;24.766;2024-03-23T07:38:48;23.90;23.10
80234;DHT22;69712;42.142;24.766;2024-03-23T07:41:18;23.60;22.60
80234;DHT22;69712;42.142;24.766;2024-03-23T07:43:44;23.90;22.60
80234;DHT22;69712;42.142;24.766;2024-03-23T07:46:10;22.70;23.70
80234;DHT22;69712;42.142;24.766;2024-03-23T07:51:59;25.50;21.50
80234;DHT22;69712;42.142;24.766;2024-03-23T07:54:25;25.20;21.20
80234;DHT22;69712;42.142;24.766;2024-03-23T07:56:51;26.00;20.80
80234;DHT22;69712;42.142;24.766;2024-03-23T07:59:16;27.00;19.80
80234;DHT22;69712;42.142;24.766;2024-03-23T08:01:44;27.20;20.00
80234;DHT22;69712;42.142;24.766;2024-03-23T08:04:09;27.50;19.60
80234;DHT22;69712;42.142;24.766;2024-03-23T08:06:35;27.70;19.70
80234;DHT22;69712;42.142;24.766;2024-03-23T08:09:01;27.70;19.40
80234;DHT22;69712;42.142;24.766;2024-03-23T08:11:31;27.30;19.30
80234;DHT22;69712;42.142;24.766;2024-03-23T08:13:57;28.20;19.40
80234;DHT22;69712;42.142;24.766;2024-03-23T08:16:23;27.70;18.80
80234;DHT22;69712;42.142;24.766;2024-03-23T08:18:52;28.30;18.90
80234;DHT22;69712;42.142;24.766;2024-03-23T08:21:18;28.20;18.50
80234;DHT22;69712;42.142;24.766;2024-03-23T08:23:44;26.60;18.60
80234;DHT22;69712;42.142;24.766;2024-03-23T08:26:12;26.70;20.80
80234;DHT22;69712;42.142;24.766;2024-03-23T08:28:38;27.30;19.80
80234;DHT22;69712;42.142;24.766;2024-03-23T08:31:09;28.30;19.30
80234;DHT22;69712;42.142;24.766;2024-03-23T08:33:36;26.70;18.30
80234;DHT22;69712;42.142;24.766;2024-03-23T08:36:07;27.60;19.20
80234;DHT22;69712;42.142;24.766;2024-03-23T08:38:33;28.60;18.70
80234;DHT22;69712;42.142;24.766;2024-03-23T08:41:07;28.10;18.70
80234;DHT22;69712;42.142;24.766;2024-03-23T08:43:37;26.90;19.80
80234;DHT22;69712;42.142;24.766;2024-03-23T08:46:07;28.50;18.50
80234;DHT22;69712;42.142;24.766;2024-03-23T08:48:38;29.40;18.00
80234;DHT22;69712;42.142;24.766;2024-03-23T08:51:05;29.60;17.90
80234;DHT22;69712;42.142;24.766;2024-03-23T08:53:32;27.70;17.80
80234;DHT22;69712;42.142;24.766;2024-03-23T08:55:58;23.30;21.10
80234;DHT22;69712;42.142;24.766;2024-03-23T08:58:25;23.70;21.20
80234;DHT22;69712;42.142;24.766;2024-03-23T09:00:52;24.70;21.40
80234;DHT22;69712;42.142;24.766;2024-03-23T09:03:18;26.10;20.00
80234;DHT22;69712;42.142;24.766;2024-03-23T09:05:44;27.00;19.30
80234;DHT22;69712;42.142;24.766;2024-03-23T09:08:10;27.90;19.30
80234;DHT22;69712;42.142;24.766;2024-03-23T09:10:39;27.50;18.80
80234;DHT22;69712;42.142;24.766;2024-03-23T09:13:05;26.50;19.80
80234;DHT22;69712;42.142;24.766;2024-03-23T09:15:34;27.00;20.40
80234;DHT22;69712;42.142;24.766;2024-03-23T09:17:59;26.90;19.10
80234;DHT22;69712;42.142;24.766;2024-03-23T09:20:26;26.90;19.60
80234;DHT22;69712;42.142;24.766;2024-03-23T09:22:51;28.30;20.10
80234;DHT22;69712;42.142;24.766;2024-03-23T09:25:17;29.30;19.10
80234;DHT22;69712;42.142;24.766;2024-03-23T09:27:46;28.40;18.40
80234;DHT22;69712;42.142;24.766;2024-03-23T09:30:13;28.70;19.50
80234;DHT22;69712;42.142;24.766;2024-03-23T09:32:41;27.80;18.70
80234;DHT22;69712;42.142;24.766;2024-03-23T09:35:07;25.20;20.60
80234;DHT22;69712;42.142;24.766;2024-03-23T09:37:33;25.60;21.80
80234;DHT22;69712;42.142;24.766;2024-03-23T09:39:58;27.10;20.60
80234;DHT22;69712;42.142;24.766;2024-03-23T09:42:24;28.30;20.10
80234;DHT22;69712;42.142;24.766;2024-03-23T09:44:51;26.90;20.10
80234;DHT22;69712;42.142;24.766;2024-03-23T09:47:17;26.80;20.80
80234;DHT22;69712;42.142;24.766;2024-03-23T09:49:44;26.90;21.20
80234;DHT22;69712;42.142;24.766;2024-03-23T09:52:10;24.70;22.20
80234;DHT22;69712;42.142;24.766;2024-03-23T09:54:36;25.50;22.50
80234;DHT22;69712;42.142;24.766;2024-03-23T09:57:02;24.50;22.10
80234;DHT22;69712;42.142;24.766;2024-03-23T09:59:29;26.00;21.90
80234;DHT22;69712;42.142;24.766;2024-03-23T10:01:55;26.50;21.70
80234;DHT22;69712;42.142;24.766;2024-03-23T10:04:41;27.60;20.70
80234;DHT22;69712;42.142;24.766;2024-03-23T10:07:14;28.00;20.10
80234;DHT22;69712;42.142;24.766;2024-03-23T10:09:40;26.70;20.30
80234;DHT22;69712;42.142;24.766;2024-03-23T10:12:10;26.30;22.00
80234;DHT22;69712;42.142;24.766;2024-03-23T10:14:37;26.40;20.80
80234;DHT22;69712;42.142;24.766;2024-03-23T10:17:22;26.90;21.20
80234;DHT22;69712;42.142;24.766;2024-03-23T10:19:51;25.20;20.30
80234;DHT22;69712;42.142;24.766;2024-03-23T10:22:21;25.20;22.00
80234;DHT22;69712;42.142;24.766;2024-03-23T10:24:48;25.60;20.70
80234;DHT22;69712;42.142;24.766;2024-03-23T10:27:23;24.50;21.20
80234;DHT22;69712;42.142;24.766;2024-03-23T10:29:50;24.50;22.00
80234;DHT22;69712;42.142;24.766;2024-03-23T10:32:17;24.00;23.00
80234;DHT22;69712;42.142;24.766;2024-03-23T10:34:44;24.30;22.70
80234;DHT22;69712;42.142;24.766;2024-03-23T10:37:29;24.30;22.50
80234;DHT22;69712;42.142;24.766;2024-03-23T10:39:55;24.20;22.60
80234;DHT22;69712;42.142;24.766;2024-03-23T10:42:21;24.50;22.70
80234;DHT22;69712;42.142;24.766;2024-03-23T10:44:48;25.20;21.70
80234;DHT22;69712;42.142;24.766;2024-03-23T10:47:14;25.60;22.20
80234;DHT22;69712;42.142;24.766;2024-03-23T10:49:39;25.60;22.30
80234;DHT22;69712;42.142;24.766;2024-03-23T10:52:06;25.80;21.50
80234;DHT22;69712;42.142;24.766;2024-03-23T10:54:33;23.40;22.50
80234;DHT22;69712;42.142;24.766;2024-03-23T10:59:50;23.90;22.70
80234;DHT22;69712;42.142;24.766;2024-03-23T11:02:20;24.10;21.40
80234;DHT22;69712;42.142;24.766;2024-03-23T11:04:46;22.80;22.40
80234;DHT22;69712;42.142;24.766;2024-03-23T11:07:32;23.30;22.30
80234;DHT22;69712;42.142;24.766;2024-03-23T11:09:59;23.60;22.80
80234;DHT22;69712;42.142;24.766;2024-03-23T11:12:29;23.30;22.60
80234;DHT22;69712;42.142;24.766;2024-03-23T11:17:26;23.10;22.30
80234;DHT22;69712;42.142;24.766;2024-03-23T11:20:02;24.20;22.50
80234;DHT22;69712;42.142;24.766;2024-03-23T11:25:11;24.90;21.20
80234;DHT22;69712;42.142;24.766;2024-03-23T11:27:37;24.70;22.50
80234;DHT22;69712;42.142;24.766;2024-03-23T11:30:32;25.00;21.10
80234;DHT22;69712;42.142;24.766;2024-03-23T11:32:58;24.90;20.80
80234;DHT22;69712;42.142;24.766;2024-03-23T11:35:37;25.80;21.10
80234;DHT22;69712;42.142;24.766;2024-03-23T11:38:14;27.10;20.40
80234;DHT22;69712;42.142;24.766;2024-03-23T11:40:50;27.60;19.30
80234;DHT22;69712;42.142;24.766;2024-03-23T11:43:17;27.30;18.90
80234;DHT22;69712;42.142;24.766;2024-03-23T11:45:44;28.00;19.10
80234;DHT22;69712;42.142;24.766;2024-03-23T11:48:11;28.60;18.80
80234;DHT22;69712;42.142;24.766;2024-03-23T11:50:42;28.20;19.20
80234;DHT22;69712;42.142;24.766;2024-03-23T11:53:21;27.00;19.60
80234;DHT22;69712;42.142;24.766;2024-03-23T11:58:22;26.30;20.40
80234;DHT22;69712;42.142;24.766;2024-03-23T12:01:01;25.60;20.60
80234;DHT22;69712;42.142;24.766;2024-03-23T12:03:31;24.20;21.50
80234;DHT22;69712;42.142;24.766;2024-03-23T12:06:00;23.90;22.30
80234;DHT22;69712;42.142;24.766;2024-03-23T12:08:32;24.70;21.80
80234;DHT22;69712;42.142;24.766;2024-03-23T12:13:38;26.30;20.40
80234;DHT22;69712;42.142;24.766;2024-03-23T12:16:11;26.60;20.20
80234;DHT22;69712;42.142;24.766;2024-03-23T12:18:38;26.90;19.70
80234;DHT22;69712;42.142;24.766;2024-03-23T12:21:05;26.40;19.60
80234;DHT22;69712;42.142;24.766;2024-03-23T12:23:31;25.20;19.90
80234;DHT22;69712;42.142;24.766;2024-03-23T12:25:58;25.30;20.10
80234;DHT22;69712;42.142;24.766;2024-03-23T12:28:24;24.60;20.00
80234;DHT22;69712;42.142;24.766;2024-03-23T12:30:51;24.70;20.60
80234;DHT22;69712;42.142;24.766;2024-03-23T12:33:18;24.80;20.50
80234;DHT22;69712;42.142;24.766;2024-03-23T12:35:44;25.30;20.70
80234;DHT22;69712;42.142;24.766;2024-03-23T12:38:10;25.50;19.40
80234;DHT22;69712;42.142;24.766;2024-03-23T12:40:36;25.00;19.60
80234;DHT22;69712;42.142;24.766;2024-03-23T12:43:01;24.30;21.00
80234;DHT22;69712;42.142;24.766;2024-03-23T12:45:28;23.70;21.40
80234;DHT22;69712;42.142;24.766;2024-03-23T12:47:54;23.50;21.70
80234;DHT22;69712;42.142;24.766;2024-03-23T12:50:20;23.10;21.20
80234;DHT22;69712;42.142;24.766;2024-03-23T12:52:46;22.90;22.10
80234;DHT22;69712;42.142;24.766;2024-03-23T12:55:12;23.10;22.30
80234;DHT22;69712;42.142;24.766;2024-03-23T12:57:38;23.50;21.20
80234;DHT22;69712;42.142;24.766;2024-03-23T13:00:05;23.60;21.40
80234;DHT22;69712;42.142;24.766;2024-03-23T13:02:32;23.60;22.10
80234;DHT22;69712;42.142;24.766;2024-03-23T13:04:59;23.80;22.20
80234;DHT22;69712;42.142;24.766;2024-03-23T13:07:25;23.70;21.30
80234;DHT22;69712;42.142;24.766;2024-03-23T13:09:51;23.70;21.40
80234;DHT22;69712;42.142;24.766;2024-03-23T13:12:20;23.50;20.50
80234;DHT22;69712;42.142;24.766;2024-03-23T13:14:46;21.20;23.60
80234;DHT22;69712;42.142;24.766;2024-03-23T13:17:13;21.20;23.60
80234;DHT22;69712;42.142;24.766;2024-03-23T13:19:39;21.90;22.80
80234;DHT22;69712;42.142;24.766;2024-03-23T13:22:05;22.00;22.10
80234;DHT22;69712;42.142;24.766;2024-03-23T13:24:31;21.20;21.60
80234;DHT22;69712;42.142;24.766;2024-03-23T13:26:57;21.40;22.00
80234;DHT22;69712;42.142;24.766;2024-03-23T13:29:24;21.60;22.00
80234;DHT22;69712;42.142;24.766;2024-03-23T13:31:51;21.40;22.80
80234;DHT22;69712;42.142;24.766;2024-03-23T13:34:18;21.40;23.50
80234;DHT22;69712;42.142;24.766;2024-03-23T13:36:45;22.60;22.40
80234;DHT22;69712;42.142;24.766;2024-03-23T13:39:11;22.10;21.90
80234;DHT22;69712;42.142;24.766;2024-03-23T13:41:40;22.00;22.40
80234;DHT22;69712;42.142;24.766;2024-03-23T13:44:07;21.70;21.90
80234;DHT22;69712;42.142;24.766;2024-03-23T13:46:33;21.70;22.30
80234;DHT22;69712;42.142;24.766;2024-03-23T13:49:00;22.10;22.30
80234;DHT22;69712;42.142;24.766;2024-03-23T13:51:26;22.00;22.40
80234;DHT22;69712;42.142;24.766;2024-03-23T13:53:56;22.30;21.80
80234;DHT22;69712;42.142;24.766;2024-03-23T13:56:24;22.10;21.30
80234;DHT22;69712;42.142;24.766;2024-03-23T13:58:50;21.90;22.00
80234;DHT22;69712;42.142;24.766;2024-03-23T14:01:17;21.90;21.50
80234;DHT22;69712;42.142;24.766;2024-03-23T14:03:43;21.50;21.60
80234;DHT22;69712;42.142;24.766;2024-03-23T14:06:10;21.10;21.60
80234;DHT22;69712;42.142;24.766;2024-03-23T14:08:37;21.20;21.50
80234;DHT22;69712;42.142;24.766;2024-03-23T14:11:08;21.10;21.90
80234;DHT22;69712;42.142;24.766;2024-03-23T14:13:34;20.80;22.20
80234;DHT22;69712;42.142;24.766;2024-03-23T14:16:01;20.40;22.80
80234;DHT22;69712;42.142;24.766;2024-03-23T14:18:27;20.40;23.30
80234;DHT22;69712;42.142;24.766;2024-03-23T14:20:58;20.50;23.30
80234;DHT22;69712;42.142;24.766;2024-03-23T14:23:28;20.70;22.60
80234;DHT22;69712;42.142;24.766;2024-03-23T14:25:58;20.80;23.00
80234;DHT22;69712;42.142;24.766;2024-03-23T14:28:24;20.80;24.30
80234;DHT22;69712;42.142;24.766;2024-03-23T14:30:51;20.60;24.20
80234;DHT22;69712;42.142;24.766;2024-03-23T14:33:17;20.80;24.20
80234;DHT22;69712;42.142;24.766;2024-03-23T14:35:51;20.90;24.20
80234;DHT22;69712;42.142;24.766;2024-03-23T14:38:18;20.70;24.10
80234;DHT22;69712;42.142;24.766;2024-03-23T14:40:44;20.50;24.20
80234;DHT22;69712;42.142;24.766;2024-03-23T14:43:10;19.90;23.60
80234;DHT22;69712;42.142;24.766;2024-03-23T14:45:36;19.80;23.90
80234;DHT22;69712;42.142;24.766;2024-03-23T14:48:02;19.50;23.60
80234;DHT22;69712;42.142;24.766;2024-03-23T14:50:28;19.60;23.80
80234;DHT22;69712;42.142;24.766;2024-03-23T14:52:54;19.70;23.50
80234;DHT22;69712;42.142;24.766;2024-03-23T14:55:20;19.90;22.10
80234;DHT22;69712;42.142;24.766;2024-03-23T14:57:46;20.10;22.30
80234;DHT22;69712;42.142;24.766;2024-03-23T15:00:12;20.00;21.80
80234;DHT22;69712;42.142;24.766;2024-03-23T15:02:38;19.80;21.70
80234;DHT22;69712;42.142;24.766;2024-03-23T15:05:07;19.60;22.10
80234;DHT22;69712;42.142;24.766;2024-03-23T15:07:40;19.50;22.30
80234;DHT22;69712;42.142;24.766;2024-03-23T15:10:06;19.80;22.50
80234;DHT22;69712;42.142;24.766;2024-03-23T15:12:33;19.60;22.50
80234;DHT22;69712;42.142;24.766;2024-03-23T15:14:59;19.20;23.30
80234;DHT22;69712;42.142;24.766;2024-03-23T15:17:26;19.40;23.80
80234;DHT22;69712;42.142;24.766;2024-03-23T15:19:52;19.40;24.10
80234;DHT22;69712;42.142;24.766;2024-03-23T15:22:19;19.50;24.40
80234;DHT22;69712;42.142;24.766;2024-03-23T15:24:46;19.50;24.60
80234;DHT22;69712;42.142;24.766;2024-03-23T15:27:12;19.20;24.60
80234;DHT22;69712;42.142;24.766;2024-03-23T15:29:38;18.90;24.70
80234;DHT22;69712;42.142;24.766;2024-03-23T15:32:04;18.60;24.90
80234;DHT22;69712;42.142;24.766;2024-03-23T15:34:30;18.70;25.10
80234;DHT22;69712;42.142;24.766;2024-03-23T15:36:56;18.70;24.90
80234;DHT22;69712;42.142;24.766;2024-03-23T15:39:21;18.80;24.90
80234;DHT22;69712;42.142;24.766;2024-03-23T15:41:48;18.80;24.70
80234;DHT22;69712;42.142;24.766;2024-03-23T15:44:14;18.90;25.10
80234;DHT22;69712;42.142;24.766;2024-03-23T15:46:40;18.90;24.50
80234;DHT22;69712;42.142;24.766;2024-03-23T15:49:06;18.90;24.20
80234;DHT22;69712;42.142;24.766;2024-03-23T15:51:32;18.90;23.80
80234;DHT22;69712;42.142;24.766;2024-03-23T15:54:00;19.00;23.90
80234;DHT22;69712;42.142;24.766;2024-03-23T15:56:26;18.80;23.90
80234;DHT22;69712;42.142;24.766;2024-03-23T15:58:52;18.70;23.90
80234;DHT22;69712;42.142;24.766;2024-03-23T16:01:18;18.50;24.10
80234;DHT22;69712;42.142;24.766;2024-03-23T16:03:44;18.40;24.40
80234;DHT22;69712;42.142;24.766;2024-03-23T16:06:09;18.40;24.90
80234;DHT22;69712;42.142;24.766;2024-03-23T16:08:35;18.30;24.80
80234;DHT22;69712;42.142;24.766;2024-03-23T16:11:02;18.20;25.30
80234;DHT22;69712;42.142;24.766;2024-03-23T16:13:28;18.20;25.50
80234;DHT22;69712;42.142;24.766;2024-03-23T16:15:55;18.10;26.00
80234;DHT22;69712;42.142;24.766;2024-03-23T16:18:22;18.10;26.50
80234;DHT22;69712;42.142;24.766;2024-03-23T16:20:57;18.00;26.70
80234;DHT22;69712;42.142;24.766;2024-03-23T16:23:24;17.70;27.30
80234;DHT22;69712;42.142;24.766;2024-03-23T16:25:50;17.70;27.60
80234;DHT22;69712;42.142;24.766;2024-03-23T16:28:32;17.50;27.90
80234;DHT22;69712;42.142;24.766;2024-03-23T16:31:06;17.50;28.20
80234;DHT22;69712;42.142;24.766;2024-03-23T16:33:32;17.40;28.30
80234;DHT22;69712;42.142;24.766;2024-03-23T16:36:05;17.30;28.50